Time;durP1;ratioP1;P1;durP2;ratioP2;P2;SDS_P1;SDS_P2;PMS_P1;PMS_P2;Temp;Humidity;BMP_temperature;BMP_pressure;BME280_temperature;BME280_humidity;BME280_pressure;Samples;Min_cycle;Max_cycle;Signal;HPM_P1;HPM_P2
2021/06/02 00:03:30;;;;;;;5.87;4.50;;;16.70;98.00;;;;;;5036544;28;20416;-38
2021/06/02 00:05:56;;;;;;;5.53;4.30;;;16.40;98.70;;;;;;5026844;28;20620;-38
2021/06/02 00:08:24;;;;;;;4.80;4.40;;;16.20;99.50;;;;;;5024979;28;20449;-38
2021/06/02 00:10:52;;;;;;;4.30;3.90;;;16.10;99.90;;;;;;5025590;28;20212;-38
2021/06/02 00:13:20;;;;;;;4.73;4.17;;;16.00;99.90;;;;;;5028076;28;20433;-38
2021/06/02 00:15:48;;;;;;;5.17;4.37;;;15.90;99.90;;;;;;5043520;28;20419;-38
2021/06/02 00:18:14;;;;;;;4.50;4.10;;;15.80;99.90;;;;;;5042837;28;20430;-38
2021/06/02 00:20:40;;;;;;;5.83;4.67;;;15.60;99.90;;;;;;5025289;28;20421;-38
2021/06/02 00:23:06;;;;;;;4.47;3.87;;;15.60;99.90;;;;;;5029576;28;20425;-38
2021/06/02 00:25:31;;;;;;;5.63;5.07;;;15.50;99.90;;;;;;5024628;28;20803;-38
2021/06/02 00:27:57;;;;;;;6.30;5.00;;;15.40;99.90;;;;;;5026262;28;20525;-38
2021/06/02 00:30:23;;;;;;;5.93;4.50;;;15.30;99.90;;;;;;5033038;28;20213;-38
2021/06/02 00:32:50;;;;;;;4.47;4.07;;;15.30;99.90;;;;;;5037170;28;20235;-38
2021/06/02 00:35:17;;;;;;;5.03;3.93;;;15.30;99.90;;;;;;5025904;28;20475;-38
2021/06/02 00:37:43;;;;;;;4.87;4.47;;;15.30;99.90;;;;;;5024911;28;20504;-38
2021/06/02 00:40:24;;;;;;;6.43;4.80;;;15.40;99.90;;;;;;5025320;28;20523;-38
2021/06/02 00:42:51;;;;;;;4.87;4.40;;;15.50;99.90;;;;;;5026270;28;20479;-38
2021/06/02 00:45:18;;;;;;;5.80;4.40;;;15.70;99.90;;;;;;5036289;28;20468;-38
2021/06/02 00:47:44;;;;;;;4.70;4.30;;;15.80;99.90;;;;;;5038006;28;20421;-38
2021/06/02 00:50:10;;;;;;;5.00;4.50;;;16.00;99.90;;;;;;5034672;28;20409;-38
2021/06/02 00:52:38;;;;;;;5.63;4.87;;;16.20;99.90;;;;;;5029407;28;20417;-38
2021/06/02 00:55:04;;;;;;;7.30;4.80;;;16.20;99.90;;;;;;5024473;28;20467;-38
2021/06/02 00:57:31;;;;;;;4.50;4.10;;;16.30;99.80;;;;;;5025870;28;20442;-38
2021/06/02 01:00:09;;;;;;;5.40;4.87;;;16.40;99.30;;;;;;5030406;28;20506;-38
2021/06/02 01:02:36;;;;;;;5.03;4.20;;;16.50;99.10;;;;;;5031594;28;20645;-38
2021/06/02 01:05:04;;;;;;;5.07;4.17;;;16.50;99.40;;;;;;5026253;28;20459;-38
2021/06/02 01:07:33;;;;;;;4.80;4.40;;;16.50;99.30;;;;;;5030503;28;20444;-38
2021/06/02 01:10:00;;;;;;;4.93;4.50;;;16.50;99.10;;;;;;5030622;28;21101;-38
2021/06/02 01:12:29;;;;;;;5.90;4.07;;;16.60;98.80;;;;;;5024515;28;20962;-38
2021/06/02 01:14:56;;;;;;;8.20;4.43;;;16.60;98.60;;;;;;5039377;28;20479;-38
2021/06/02 01:17:26;;;;;;;5.37;4.10;;;16.60;98.60;;;;;;5040021;28;21200;-38
2021/06/02 01:19:54;;;;;;;5.73;4.63;;;16.60;98.60;;;;;;5028521;28;20786;-38
2021/06/02 01:22:20;;;;;;;4.00;3.70;;;16.70;98.60;;;;;;5027426;28;20467;-38
2021/06/02 01:24:46;;;;;;;6.77;5.10;;;16.60;98.70;;;;;;5031388;28;20836;-38
2021/06/02 01:27:13;;;;;;;5.40;4.37;;;16.60;98.70;;;;;;5027953;28;20425;-38
2021/06/02 01:29:45;;;;;;;5.30;4.63;;;16.60;98.90;;;;;;5035924;28;20474;-38
2021/06/02 01:32:17;;;;;;;5.20;4.67;;;16.50;98.90;;;;;;5039640;28;20437;-38
2021/06/02 01:35:30;;;;;;;5.10;4.60;;;16.50;98.90;;;;;;5041212;28;20457;-39
2021/06/02 01:38:14;;;;;;;4.10;3.80;;;16.50;98.60;;;;;;5030915;28;20421;-39
2021/06/02 01:41:18;;;;;;;5.20;4.60;;;16.50;98.40;;;;;;5028619;28;20425;-39
2021/06/02 01:43:49;;;;;;;4.80;4.20;;;16.40;98.80;;;;;;5040437;28;21005;-39
2021/06/02 01:46:47;;;;;;;5.17;4.67;;;16.40;99.20;;;;;;5032671;28;20445;-39
2021/06/02 01:49:47;;;;;;;5.80;4.73;;;16.40;99.30;;;;;;5034448;28;20432;-39
2021/06/02 01:52:50;;;;;;;6.73;4.23;;;16.50;98.70;;;;;;5027513;28;20460;-39
2021/06/02 01:55:41;;;;;;;6.47;4.30;;;16.40;99.10;;;;;;5040703;28;20508;-39
2021/06/02 01:58:44;;;;;;;5.43;4.37;;;16.20;99.70;;;;;;5047468;28;20789;-39
2021/06/02 02:01:47;;;;;;;5.70;4.50;;;16.10;99.90;;;;;;5039747;28;20432;-39
2021/06/02 02:04:31;;;;;;;4.33;3.90;;;15.90;99.90;;;;;;5035832;28;20428;-39
2021/06/02 02:07:33;;;;;;;7.13;4.60;;;15.80;99.90;;;;;;5028296;28;20420;-39
2021/06/02 02:10:23;;;;;;;4.90;4.17;;;15.60;99.90;;;;;;5041346;28;20424;-38
2021/06/02 02:12:58;;;;;;;5.50;4.87;;;15.50;99.90;;;;;;5048536;28;20420;-39
2021/06/02 02:15:48;;;;;;;6.20;4.63;;;15.50;99.90;;;;;;5045259;28;20590;-38
2021/06/02 02:19:05;;;;;;;5.03;4.63;;;15.50;99.90;;;;;;5037157;28;20827;-39
2021/06/02 02:21:42;;;;;;;7.23;4.80;;;15.50;99.90;;;;;;5030002;28;20428;-39
2021/06/02 02:24:10;;;;;;;6.43;5.77;;;15.40;99.90;;;;;;5037258;28;20425;-39
2021/06/02 02:26:42;;;;;;;4.73;4.33;;;15.50;99.90;;;;;;5027666;28;20424;-39
2021/06/02 02:29:26;;;;;;;4.47;4.03;;;15.60;99.90;;;;;;5027722;28;20603;-38
2021/06/02 02:32:12;;;;;;;4.67;4.27;;;15.80;99.90;;;;;;5037099;28;20443;-39
2021/06/02 02:34:58;;;;;;;4.90;4.40;;;15.80;99.90;;;;;;5033914;28;20453;-39
2021/06/02 02:37:54;;;;;;;5.13;4.70;;;15.60;99.90;;;;;;5027904;28;20428;-39
2021/06/02 02:40:23;;;;;;;6.40;4.67;;;15.40;99.90;;;;;;5036564;28;20522;-39
2021/06/02 02:43:15;;;;;;;5.33;4.83;;;15.30;99.90;;;;;;5027804;28;20906;-38
2021/06/02 02:45:58;;;;;;;7.40;5.73;;;15.30;99.90;;;;;;5033098;28;20451;-39
2021/06/02 02:48:53;;;;;;;8.20;5.80;;;15.30;99.90;;;;;;5039755;28;20427;-39
2021/06/02 02:51:40;;;;;;;6.13;5.53;;;15.30;99.90;;;;;;5028127;28;20799;-38
2021/06/02 02:54:37;;;;;;;6.43;5.73;;;15.30;99.90;;;;;;5032778;28;20468;-39
2021/06/02 02:57:42;;;;;;;7.13;6.00;;;15.20;99.90;;;;;;5018139;28;20432;-39
2021/06/02 03:00:12;;;;;;;6.63;5.93;;;15.30;99.90;;;;;;4986645;28;20446;-39
2021/06/02 03:02:49;;;;;;;6.43;5.80;;;15.30;99.90;;;;;;4997094;28;20903;-38
2021/06/02 03:05:23;;;;;;;6.67;5.50;;;15.20;99.90;;;;;;5015723;28;20443;-39
2021/06/02 03:08:00;;;;;;;7.10;6.13;;;15.20;99.90;;;;;;5026182;28;20564;-39
2021/06/02 03:10:29;;;;;;;7.07;5.43;;;15.10;99.90;;;;;;5026810;28;20425;-39
2021/06/02 03:13:08;;;;;;;9.57;5.77;;;14.90;99.90;;;;;;5026422;28;20512;-39
2021/06/02 03:15:48;;;;;;;7.33;5.87;;;14.80;99.90;;;;;;5032915;28;20471;-38
2021/06/02 03:18:27;;;;;;;6.13;5.63;;;14.90;99.90;;;;;;5040134;28;20708;-39
2021/06/02 03:21:31;;;;;;;7.00;6.30;;;15.00;99.90;;;;;;5026264;28;20460;-39
2021/06/02 03:24:06;;;;;;;5.80;5.20;;;15.00;99.90;;;;;;5007206;28;20425;-39
2021/06/02 03:26:40;;;;;;;9.03;5.67;;;15.00;99.90;;;;;;5042735;28;20509;-39
2021/06/02 03:29:06;;;;;;;9.80;6.37;;;14.90;99.90;;;;;;5026030;28;20444;-39
2021/06/02 03:32:09;;;;;;;7.50;6.70;;;14.80;99.90;;;;;;5028833;28;20436;-39
2021/06/02 03:35:11;;;;;;;7.37;6.40;;;14.80;99.90;;;;;;5035543;28;20784;-39
2021/06/02 03:37:42;;;;;;;9.57;6.70;;;14.90;99.90;;;;;;5009374;28;20500;-39
2021/06/02 03:40:29;;;;;;;6.87;6.00;;;14.90;99.90;;;;;;5028193;28;20417;-39
2021/06/02 03:43:24;;;;;;;10.10;6.40;;;15.00;99.90;;;;;;5026860;28;20428;-39
2021/06/02 03:46:35;;;;;;;10.20;7.30;;;14.90;99.90;;;;;;5025204;28;20835;-38
2021/06/02 03:49:25;;;;;;;8.63;7.73;;;14.70;99.90;;;;;;5036792;28;20420;-39
2021/06/02 03:52:03;;;;;;;12.73;8.40;;;14.80;99.90;;;;;;5026383;28;20416;-39
2021/06/02 03:54:45;;;;;;;11.40;8.10;;;14.80;99.90;;;;;;5032842;28;21172;-38
2021/06/02 03:57:33;;;;;;;11.83;9.53;;;14.80;99.90;;;;;;5031312;28;20429;-38
2021/06/02 04:00:23;;;;;;;14.60;10.50;;;14.90;99.90;;;;;;5024625;28;21008;-38
2021/06/02 04:03:03;;;;;;;9.87;8.87;;;14.90;99.90;;;;;;5037756;28;20778;-39
2021/06/02 04:05:47;;;;;;;8.13;7.33;;;15.00;99.90;;;;;;5031489;28;20938;-38
2021/06/02 04:08:23;;;;;;;12.53;8.20;;;14.90;99.90;;;;;;5026220;28;20480;-39
2021/06/02 04:11:21;;;;;;;12.50;9.30;;;14.80;99.90;;;;;;5031928;28;20416;-39
2021/06/02 04:14:00;;;;;;;12.20;8.57;;;14.70;99.90;;;;;;5030511;28;20455;-39
2021/06/02 04:16:29;;;;;;;16.27;9.07;;;14.50;99.90;;;;;;5024619;28;21002;-39
2021/06/02 04:18:59;;;;;;;9.80;8.07;;;14.40;99.90;;;;;;5037894;28;20416;-39
2021/06/02 04:21:25;;;;;;;9.77;8.20;;;14.20;99.90;;;;;;5040828;28;20462;-39
2021/06/02 04:23:53;;;;;;;8.93;6.80;;;14.20;99.90;;;;;;5024981;28;20471;-39
2021/06/02 04:26:21;;;;;;;9.60;7.87;;;14.10;99.90;;;;;;5025429;28;20427;-39
2021/06/02 04:28:48;;;;;;;10.23;7.47;;;14.00;99.90;;;;;;5025392;28;20433;-38
2021/06/02 04:31:15;;;;;;;7.10;6.30;;;14.10;99.90;;;;;;5027315;28;20460;-38
2021/06/02 04:33:44;;;;;;;7.20;6.03;;;14.20;99.90;;;;;;5034638;28;20426;-39
2021/06/02 04:36:13;;;;;;;6.77;6.17;;;14.30;99.90;;;;;;5038105;28;20457;-39
2021/06/02 04:38:39;;;;;;;6.63;5.90;;;14.40;99.90;;;;;;5025847;28;20441;-38
2021/06/02 04:41:07;;;;;;;6.50;5.23;;;14.50;99.90;;;;;;5036363;28;20508;-38
2021/06/02 04:43:36;;;;;;;6.70;5.07;;;14.70;99.90;;;;;;5026188;28;20757;-39
2021/06/02 04:46:05;;;;;;;5.70;5.20;;;14.90;99.90;;;;;;5026816;28;20730;-39
2021/06/02 04:48:31;;;;;;;5.47;4.97;;;15.10;99.90;;;;;;5043771;28;20817;-39
2021/06/02 04:51:15;;;;;;;5.87;5.30;;;15.20;99.90;;;;;;5035867;28;20492;-36
2021/06/02 04:53:56;;;;;;;7.37;5.27;;;15.20;99.90;;;;;;5025832;28;20632;-40
2021/06/02 04:56:58;;;;;;;6.30;5.70;;;15.20;99.90;;;;;;5034317;28;20424;-39
2021/06/02 04:59:49;;;;;;;8.80;6.43;;;15.20;99.90;;;;;;5039276;28;20424;-39
2021/06/02 05:02:36;;;;;;;6.83;6.20;;;15.20;99.90;;;;;;5037915;28;20437;-39
2021/06/02 05:05:11;;;;;;;7.20;5.87;;;15.20;99.90;;;;;;5035464;28;20432;-39
2021/06/02 05:08:14;;;;;;;5.40;5.00;;;15.10;99.90;;;;;;5029447;28;20432;-40
2021/06/02 05:10:48;;;;;;;7.30;6.23;;;15.10;99.90;;;;;;5030698;28;20435;-39
2021/06/02 05:13:35;;;;;;;6.97;5.60;;;15.40;99.90;;;;;;5030675;28;20446;-39
2021/06/02 05:16:39;;;;;;;7.63;5.93;;;15.60;99.90;;;;;;5049358;28;20424;-39
2021/06/02 05:19:45;;;;;;;5.63;5.17;;;15.80;99.90;;;;;;5041253;28;20440;-40
2021/06/02 05:22:23;;;;;;;6.40;5.03;;;16.00;99.90;;;;;;5029695;28;20421;-40
2021/06/02 05:25:17;;;;;;;9.57;5.97;;;16.20;99.90;;;;;;5028708;28;20455;-39
2021/06/02 05:27:52;;;;;;;9.57;5.80;;;16.30;99.90;;;;;;5036191;28;20420;-40
2021/06/02 05:30:38;;;;;;;6.90;6.17;;;16.50;99.90;;;;;;5027402;28;20789;-40
2021/06/02 05:33:22;;;;;;;8.80;5.70;;;16.60;99.90;;;;;;5037381;28;20433;-39
2021/06/02 05:36:19;;;;;;;9.00;5.43;;;16.80;99.90;;;;;;5043991;28;20456;-40
2021/06/02 05:38:54;;;;;;;8.10;5.60;;;16.90;99.90;;;;;;5039146;28;20542;-39
2021/06/02 05:41:44;;;;;;;5.73;5.13;;;17.00;99.90;;;;;;5043685;28;20417;-39
2021/06/02 05:44:25;;;;;;;8.90;5.70;;;17.20;99.90;;;;;;5029123;28;20421;-40
2021/06/02 05:47:27;;;;;;;6.00;5.40;;;17.40;99.90;;;;;;5029951;28;20425;-39
2021/06/02 05:50:08;;;;;;;7.03;6.03;;;17.50;99.90;;;;;;5035828;28;20424;-39
2021/06/02 05:52:46;;;;;;;8.03;6.67;;;17.50;99.90;;;;;;5041870;28;20428;-38
2021/06/02 05:55:27;;;;;;;9.40;6.80;;;17.70;99.90;;;;;;5028863;28;20452;-39
2021/06/02 05:58:17;;;;;;;7.73;6.60;;;17.80;99.90;;;;;;5027341;28;20986;-39
2021/06/02 06:00:48;;;;;;;7.80;7.00;;;18.00;99.90;;;;;;5026756;28;20428;-39
2021/06/02 06:03:48;;;;;;;8.77;7.10;;;18.20;99.60;;;;;;5031571;28;20524;-39
2021/06/02 06:06:38;;;;;;;12.53;6.27;;;18.40;99.40;;;;;;5043587;28;20494;-39
2021/06/02 06:09:22;;;;;;;8.47;7.10;;;18.70;99.10;;;;;;5025785;28;20437;-39
2021/06/02 06:12:06;;;;;;;9.20;6.90;;;18.80;98.00;;;;;;5039157;28;20519;-39
2021/06/02 06:14:41;;;;;;;8.00;6.43;;;18.90;97.70;;;;;;5028136;28;20463;-39
2021/06/02 06:17:26;;;;;;;9.10;6.70;;;19.10;97.40;;;;;;5046722;28;20823;-39
2021/06/02 06:20:11;;;;;;;7.40;6.10;;;19.20;97.60;;;;;;5020609;28;20416;-39
2021/06/02 06:22:46;;;;;;;13.73;6.60;;;19.40;97.00;;;;;;5035064;28;20407;-39
2021/06/02 06:25:26;;;;;;;6.10;5.50;;;19.50;96.10;;;;;;5035793;28;20485;-39
2021/06/02 06:27:59;;;;;;;7.07;5.47;;;19.70;95.40;;;;;;5032715;28;20424;-39
2021/06/02 06:30:32;;;;;;;5.70;5.10;;;19.80;95.00;;;;;;5040743;28;20433;-39
2021/06/02 06:32:59;;;;;;;7.63;5.10;;;20.00;94.70;;;;;;5041411;28;20879;-39
2021/06/02 06:35:27;;;;;;;5.93;5.13;;;20.10;95.10;;;;;;5038209;28;20457;-39
2021/06/02 06:37:56;;;;;;;7.70;4.77;;;20.30;94.70;;;;;;5047278;28;20420;-39
2021/06/02 06:40:27;;;;;;;9.30;6.17;;;20.40;94.00;;;;;;5041833;28;20779;-39
2021/06/02 06:42:55;;;;;;;4.27;3.87;;;20.60;92.90;;;;;;5030281;28;20620;-39
2021/06/02 06:45:30;;;;;;;4.23;3.80;;;20.70;92.00;;;;;;5026258;28;20433;-39
2021/06/02 06:47:58;;;;;;;5.17;4.30;;;20.90;92.20;;;;;;5029066;28;20448;-39
2021/06/02 06:50:24;;;;;;;7.07;5.37;;;21.00;92.80;;;;;;5039476;28;20481;-39
2021/06/02 06:52:53;;;;;;;5.40;4.80;;;21.10;92.40;;;;;;5032814;28;20482;-39
2021/06/02 06:55:21;;;;;;;4.23;3.73;;;21.40;91.80;;;;;;5027275;28;20913;-39
2021/06/02 06:57:49;;;;;;;6.07;3.90;;;21.50;91.60;;;;;;5041730;28;20612;-39
2021/06/02 07:00:16;;;;;;;6.47;4.47;;;21.60;90.50;;;;;;5024709;28;20811;-38
2021/06/02 07:02:44;;;;;;;26.67;5.70;;;21.80;89.60;;;;;;5025286;28;20429;-38
2021/06/02 07:05:11;;;;;;;9.87;5.00;;;22.00;87.20;;;;;;5041089;28;20430;-38
2021/06/02 07:07:41;;;;;;;4.90;4.23;;;22.10;86.90;;;;;;5045542;28;21015;-38
2021/06/02 07:10:07;;;;;;;4.53;4.13;;;22.20;87.20;;;;;;5029772;28;20648;-38
2021/06/02 07:12:35;;;;;;;9.40;4.80;;;22.30;86.00;;;;;;5031851;28;20429;-38
2021/06/02 07:15:03;;;;;;;8.80;5.77;;;22.30;85.60;;;;;;5031443;28;20521;-38
2021/06/02 07:17:31;;;;;;;6.13;3.77;;;22.40;86.40;;;;;;5046250;28;20480;-38
2021/06/02 07:20:03;;;;;;;5.73;4.20;;;22.40;85.80;;;;;;5036352;28;20464;-38
2021/06/02 07:22:29;;;;;;;4.50;4.10;;;22.40;85.90;;;;;;5036084;28;20967;-38
2021/06/02 07:24:57;;;;;;;6.40;5.20;;;22.50;85.80;;;;;;5025165;28;20491;-36
2021/06/02 07:27:23;;;;;;;5.53;4.43;;;22.60;85.60;;;;;;5027825;28;20446;-36
2021/06/02 07:29:49;;;;;;;5.43;4.50;;;22.60;85.40;;;;;;5025323;28;20928;-36
2021/06/02 07:32:15;;;;;;;4.57;4.17;;;22.70;86.70;;;;;;5026833;28;20855;-36
2021/06/02 07:34:40;;;;;;;5.27;4.57;;;22.80;85.20;;;;;;5031429;28;20504;-36
2021/06/02 07:37:06;;;;;;;5.73;4.63;;;22.90;85.40;;;;;;5034556;28;20281;-36
2021/06/02 07:39:32;;;;;;;4.17;3.73;;;22.90;85.30;;;;;;5025057;28;20187;-36
2021/06/02 07:41:58;;;;;;;6.70;4.30;;;22.90;85.20;;;;;;5034054;28;20216;-36
2021/06/02 07:44:23;;;;;;;6.00;4.33;;;22.90;86.30;;;;;;5029298;28;20208;-35
2021/06/02 07:46:49;;;;;;;5.73;4.43;;;23.00;86.10;;;;;;5029554;28;20567;-36
2021/06/02 07:49:15;;;;;;;5.10;4.60;;;23.00;86.10;;;;;;5039615;28;20285;-36
2021/06/02 07:51:41;;;;;;;5.63;3.90;;;23.00;85.00;;;;;;5036549;28;20562;-36
2021/06/02 07:54:07;;;;;;;5.13;3.80;;;23.00;84.40;;;;;;5031642;28;20308;-36
2021/06/02 07:56:33;;;;;;;4.70;3.90;;;23.00;84.40;;;;;;5026871;28;20186;-36
2021/06/02 07:58:59;;;;;;;4.57;4.17;;;22.90;85.60;;;;;;5039149;28;20433;-36
2021/06/02 08:01:25;;;;;;;3.90;3.60;;;22.90;85.80;;;;;;5026756;28;20421;-36
2021/06/02 08:03:51;;;;;;;4.93;3.90;;;22.90;85.20;;;;;;5027597;28;20641;-36
2021/06/02 08:06:17;;;;;;;5.77;4.13;;;22.90;86.10;;;;;;5041975;28;20947;-36
2021/06/02 08:08:42;;;;;;;5.97;3.47;;;22.90;85.30;;;;;;5032175;28;20202;-36
2021/06/02 08:11:08;;;;;;;4.10;3.80;;;22.90;84.30;;;;;;5026567;28;20908;-36
2021/06/02 08:13:34;;;;;;;4.03;3.63;;;22.80;84.00;;;;;;5037946;28;20193;-36
2021/06/02 08:16:00;;;;;;;5.70;3.83;;;22.80;85.00;;;;;;5044947;28;20426;-35
2021/06/02 08:18:26;;;;;;;5.33;3.90;;;22.70;84.80;;;;;;5046393;28;20208;-36
2021/06/02 08:20:53;;;;;;;5.53;4.20;;;22.70;84.80;;;;;;5041688;28;20439;-36
2021/06/02 08:23:19;;;;;;;5.90;3.93;;;22.70;84.50;;;;;;5041386;28;20532;-36
2021/06/02 08:25:45;;;;;;;4.87;3.80;;;22.80;85.10;;;;;;5034669;28;20471;-35
2021/06/02 08:28:10;;;;;;;4.30;3.90;;;22.80;85.60;;;;;;5029968;28;20456;-36
2021/06/02 08:30:36;;;;;;;5.17;4.10;;;22.90;84.80;;;;;;5025791;28;20432;-36
2021/06/02 08:33:02;;;;;;;5.80;3.83;;;23.00;84.50;;;;;;5027494;28;20462;-36
2021/06/02 08:35:27;;;;;;;4.10;3.80;;;23.00;85.10;;;;;;5034260;28;20612;-36
2021/06/02 08:37:55;;;;;;;4.33;3.93;;;23.20;84.10;;;;;;5045887;28;20193;-36
2021/06/02 08:40:22;;;;;;;5.83;4.13;;;23.40;85.00;;;;;;5037413;28;20194;-36
2021/06/02 08:42:48;;;;;;;4.50;4.10;;;23.50;83.40;;;;;;5032988;28;20424;-36
2021/06/02 08:45:15;;;;;;;4.43;3.87;;;23.60;83.60;;;;;;5038467;28;20475;-36
2021/06/02 08:47:42;;;;;;;8.83;4.17;;;23.70;82.60;;;;;;5028779;28;20506;-36
2021/06/02 08:50:10;;;;;;;3.83;3.50;;;23.80;83.20;;;;;;5032709;28;20445;-36
2021/06/02 08:52:38;;;;;;;4.17;3.77;;;23.90;83.20;;;;;;5040405;28;20498;-36
2021/06/02 08:55:10;;;;;;;5.20;4.50;;;24.00;79.60;;;;;;5035643;28;20465;-36
2021/06/02 08:57:40;;;;;;;4.00;3.60;;;24.10;80.00;;;;;;5029980;28;20429;-36
2021/06/02 09:00:16;;;;;;;3.67;3.20;;;24.30;76.30;;;;;;5036548;28;20437;-36
2021/06/02 09:02:44;;;;;;;7.30;3.60;;;24.40;76.40;;;;;;5029539;28;20635;-36
2021/06/02 09:05:10;;;;;;;4.80;3.30;;;24.50;75.30;;;;;;5030218;28;20467;-36
2021/06/02 09:07:38;;;;;;;4.43;3.40;;;24.60;73.50;;;;;;5042735;28;20444;-36
2021/06/02 09:10:06;;;;;;;4.10;3.70;;;24.70;74.60;;;;;;5046615;28;20467;-36
2021/06/02 09:12:32;;;;;;;3.47;3.27;;;24.80;72.00;;;;;;5029437;28;20787;-36
2021/06/02 09:15:10;;;;;;;3.70;3.40;;;24.90;67.30;;;;;;5047610;28;20893;-36
2021/06/02 09:17:57;;;;;;;4.03;3.63;;;24.90;67.50;;;;;;5049422;28;20822;-37
2021/06/02 09:20:43;;;;;;;3.63;3.33;;;24.90;65.70;;;;;;5045450;28;20439;-38
2021/06/02 09:23:44;;;;;;;4.30;3.90;;;24.90;68.10;;;;;;5033856;28;20435;-38
2021/06/02 09:26:13;;;;;;;3.80;3.50;;;25.10;68.80;;;;;;4991825;28;20441;-38
2021/06/02 09:29:03;;;;;;;5.07;3.70;;;25.20;70.20;;;;;;5027225;28;20434;-38
2021/06/02 09:31:36;;;;;;;5.87;3.60;;;25.30;67.60;;;;;;5031628;28;20425;-38
2021/06/02 09:34:24;;;;;;;4.77;3.60;;;25.40;69.30;;;;;;5028896;28;20461;-38
2021/06/02 09:37:02;;;;;;;6.00;4.10;;;25.40;67.90;;;;;;5038933;28;20528;-38
2021/06/02 09:39:27;;;;;;;5.03;4.20;;;25.50;69.00;;;;;;5031343;28;20421;-38
2021/06/02 09:41:59;;;;;;;4.20;3.87;;;25.50;67.40;;;;;;5029309;28;20417;-38
2021/06/02 09:44:29;;;;;;;5.03;3.90;;;25.50;68.50;;;;;;5035865;28;20560;-38
2021/06/02 09:47:11;;;;;;;5.10;4.60;;;25.50;70.20;;;;;;5029296;28;20516;-38
2021/06/02 09:49:47;;;;;;;3.77;3.37;;;25.50;67.70;;;;;;5033265;28;20435;-38
2021/06/02 09:52:14;;;;;;;5.10;3.57;;;25.70;65.10;;;;;;5040861;28;20427;-38
2021/06/02 09:54:39;;;;;;;4.83;3.70;;;25.50;67.60;;;;;;5046375;28;21037;-38
2021/06/02 09:57:13;;;;;;;4.20;3.90;;;25.60;67.30;;;;;;5033758;28;20516;-39
2021/06/02 09:59:58;;;;;;;4.43;4.10;;;25.70;69.90;;;;;;5031168;28;20186;-38
2021/06/02 10:02:25;;;;;;;6.60;3.40;;;25.80;68.30;;;;;;5028833;28;20764;-38
2021/06/02 10:05:08;;;;;;;3.90;3.17;;;25.90;67.20;;;;;;5028637;28;20431;-38
2021/06/02 10:07:45;;;;;;;3.93;3.53;;;26.10;64.40;;;;;;5037039;28;20448;-38
2021/06/02 10:10:19;;;;;;;3.90;3.50;;;26.10;64.00;;;;;;5042573;28;20782;-38
2021/06/02 10:13:06;;;;;;;4.07;3.20;;;26.10;60.90;;;;;;5038680;28;20776;-38
2021/06/02 10:15:36;;;;;;;4.17;3.87;;;26.10;61.20;;;;;;5047536;28;20502;-38
2021/06/02 10:18:03;;;;;;;3.63;3.20;;;26.00;63.40;;;;;;5048328;28;20489;-38
2021/06/02 10:20:30;;;;;;;3.87;3.17;;;26.00;59.00;;;;;;5029763;28;20436;-38
2021/06/02 10:22:58;;;;;;;3.23;3.03;;;25.90;59.10;;;;;;5038078;28;20802;-38
2021/06/02 10:25:26;;;;;;;4.17;3.00;;;26.00;59.10;;;;;;5037403;28;20797;-38
2021/06/02 10:27:54;;;;;;;2.87;2.67;;;26.00;59.20;;;;;;5032228;28;20433;-38
2021/06/02 10:30:22;;;;;;;3.20;2.80;;;26.10;59.70;;;;;;5033200;28;20431;-36
2021/06/02 10:32:48;;;;;;;3.20;2.90;;;26.00;57.30;;;;;;5033210;28;20433;-36
2021/06/02 10:35:14;;;;;;;3.23;2.93;;;26.00;57.00;;;;;;5026892;28;20527;-36
2021/06/02 10:37:42;;;;;;;3.43;3.13;;;25.90;57.20;;;;;;5029474;28;20441;-36
2021/06/02 10:40:17;;;;;;;3.60;3.23;;;26.00;57.80;;;;;;5039552;28;20279;-36
2021/06/02 10:43:07;;;;;;;3.27;2.93;;;26.10;56.00;;;;;;5029018;28;20435;-36
2021/06/02 10:45:38;;;;;;;3.00;2.70;;;26.20;58.40;;;;;;5034985;28;20482;-36
2021/06/02 10:48:05;;;;;;;2.67;2.40;;;26.30;55.90;;;;;;5027741;28;20431;-36
2021/06/02 10:50:39;;;;;;;3.63;3.33;;;26.30;55.20;;;;;;5025922;28;20429;-36
2021/06/02 10:53:23;;;;;;;3.00;2.80;;;26.40;56.70;;;;;;5027071;28;20826;-36
2021/06/02 10:55:50;;;;;;;3.63;3.33;;;26.40;55.10;;;;;;5037032;28;20468;-36
2021/06/02 10:58:20;;;;;;;3.00;2.80;;;26.30;53.60;;;;;;5027678;28;20514;-38
2021/06/02 11:00:52;;;;;;;4.00;2.77;;;26.30;53.90;;;;;;5029387;28;20691;-38
2021/06/02 11:03:21;;;;;;;2.80;2.57;;;26.40;55.90;;;;;;5027378;28;20437;-38
2021/06/02 11:06:14;;;;;;;3.00;2.80;;;26.50;54.70;;;;;;5027879;28;20448;-38
2021/06/02 11:08:48;;;;;;;2.50;2.30;;;26.60;54.20;;;;;;5037704;28;20467;-38
2021/06/02 11:11:31;;;;;;;2.90;2.57;;;26.70;54.20;;;;;;5034453;28;20926;-38
2021/06/02 11:14:20;;;;;;;3.80;2.73;;;26.80;53.80;;;;;;5032487;28;20425;-39
2021/06/02 11:17:21;;;;;;;4.93;2.93;;;26.90;54.10;;;;;;5043919;28;20424;-38
2021/06/02 11:19:54;;;;;;;4.23;2.90;;;26.80;52.20;;;;;;5000803;28;20475;-38
2021/06/02 11:22:25;;;;;;;2.90;2.60;;;26.90;52.30;;;;;;5028088;28;20942;-38
2021/06/02 11:24:53;;;;;;;2.77;2.57;;;26.90;51.50;;;;;;5035992;28;20930;-38
2021/06/02 11:27:18;;;;;;;3.60;3.10;;;26.80;52.20;;;;;;5041491;28;20421;-38
2021/06/02 11:29:50;;;;;;;3.90;3.50;;;26.70;52.60;;;;;;5030041;28;20660;-38
2021/06/02 11:32:20;;;;;;;3.80;3.40;;;26.70;51.10;;;;;;5030164;28;20244;-38
2021/06/02 11:34:57;;;;;;;5.03;4.63;;;26.70;53.40;;;;;;5026467;28;20467;-38
2021/06/02 11:37:26;;;;;;;5.17;4.07;;;26.70;50.80;;;;;;5026835;28;20918;-36
2021/06/02 11:39:54;;;;;;;3.70;3.33;;;26.60;53.20;;;;;;5031033;28;20460;-36
2021/06/02 11:42:35;;;;;;;3.53;3.23;;;26.60;52.90;;;;;;5034625;28;20519;-36
2021/06/02 11:45:08;;;;;;;3.40;3.20;;;26.60;53.60;;;;;;5026710;28;20915;-36
2021/06/02 11:47:36;;;;;;;3.70;3.40;;;26.60;55.70;;;;;;5037005;28;20429;-36
2021/06/02 11:50:16;;;;;;;3.50;3.20;;;26.70;55.40;;;;;;5026248;28;20471;-36
2021/06/02 11:52:43;;;;;;;3.70;3.40;;;26.70;53.00;;;;;;5026809;28;20436;-36
2021/06/02 11:55:15;;;;;;;3.47;3.17;;;26.60;52.00;;;;;;5034709;28;20456;-36
2021/06/02 11:57:45;;;;;;;3.20;3.00;;;26.60;54.10;;;;;;5038085;28;20946;-36
2021/06/02 12:00:16;;;;;;;3.50;3.10;;;26.70;53.90;;;;;;5025805;28;20428;-36
2021/06/02 12:02:44;;;;;;;4.13;3.10;;;26.80;54.40;;;;;;5033102;28;20847;-36
2021/06/02 12:05:39;;;;;;;3.53;3.23;;;26.70;54.10;;;;;;5026593;28;20456;-36
2021/06/02 12:08:09;;;;;;;5.10;3.50;;;26.70;54.10;;;;;;5029394;28;20471;-36
2021/06/02 12:10:36;;;;;;;5.00;3.53;;;26.70;53.80;;;;;;5034044;28;20425;-36
2021/06/02 12:13:04;;;;;;;3.43;3.13;;;26.60;53.30;;;;;;5043769;28;20432;-37
2021/06/02 12:15:42;;;;;;;3.43;2.90;;;26.70;53.60;;;;;;5046433;28;20470;-36
2021/06/02 12:18:07;;;;;;;4.40;3.00;;;26.70;54.10;;;;;;5029421;28;20424;-36
2021/06/02 12:20:35;;;;;;;3.23;3.03;;;26.70;52.30;;;;;;5025550;28;20528;-36
2021/06/02 12:23:06;;;;;;;3.67;3.20;;;26.70;53.10;;;;;;5027572;28;20201;-36
2021/06/02 12:25:34;;;;;;;2.90;2.70;;;26.70;53.50;;;;;;5035007;28;20523;-36
2021/06/02 12:28:04;;;;;;;3.60;3.40;;;26.60;51.60;;;;;;5034119;28;21082;-36
2021/06/02 12:30:37;;;;;;;3.00;2.80;;;26.70;52.50;;;;;;5026227;28;20432;-36
2021/06/02 12:33:15;;;;;;;6.93;2.93;;;26.70;51.80;;;;;;5037409;28;20425;-36
2021/06/02 12:35:44;;;;;;;3.30;2.77;;;26.70;51.60;;;;;;5026522;28;20563;-36
2021/06/02 12:38:14;;;;;;;2.93;2.73;;;26.80;52.30;;;;;;5026819;28;20432;-36
2021/06/02 12:40:41;;;;;;;3.43;3.13;;;26.80;52.90;;;;;;5037477;28;20974;-36
2021/06/02 12:43:39;;;;;;;3.47;3.23;;;26.90;53.70;;;;;;5031914;28;20432;-36
2021/06/02 12:46:12;;;;;;;3.33;2.77;;;26.90;50.50;;;;;;5025665;28;20469;-36
2021/06/02 12:48:39;;;;;;;3.03;2.83;;;27.00;52.90;;;;;;5032159;28;20464;-36
2021/06/02 12:51:07;;;;;;;3.43;2.87;;;27.10;52.30;;;;;;5025876;28;20429;-36
2021/06/02 12:53:38;;;;;;;3.73;2.77;;;27.10;52.10;;;;;;5027086;28;20452;-36
2021/06/02 12:56:05;;;;;;;3.47;3.20;;;27.10;51.80;;;;;;5040111;28;20808;-36
2021/06/02 12:58:32;;;;;;;3.50;3.20;;;27.10;53.00;;;;;;5042015;28;20416;-36
2021/06/02 13:01:04;;;;;;;3.03;2.73;;;27.00;51.90;;;;;;5024696;28;20822;-36
2021/06/02 13:03:31;;;;;;;3.00;2.80;;;26.90;53.90;;;;;;5025824;28;20421;-36
2021/06/02 13:05:57;;;;;;;2.90;2.70;;;27.00;55.80;;;;;;5025997;28;20433;-36
2021/06/02 13:08:23;;;;;;;3.63;2.93;;;27.10;53.30;;;;;;5025171;28;20457;-36
2021/06/02 13:10:49;;;;;;;3.20;2.90;;;27.20;54.20;;;;;;5029790;28;20336;-36
2021/06/02 13:13:16;;;;;;;3.53;2.90;;;27.30;53.60;;;;;;5033460;28;20432;-36
2021/06/02 13:15:43;;;;;;;3.10;2.80;;;27.30;53.40;;;;;;5044109;28;20471;-36
2021/06/02 13:18:26;;;;;;;3.20;3.00;;;27.30;54.80;;;;;;5034441;28;20429;-36
2021/06/02 13:20:52;;;;;;;2.90;2.63;;;27.40;52.60;;;;;;5028515;28;20436;-36
2021/06/02 13:23:23;;;;;;;5.17;2.97;;;27.30;52.10;;;;;;5029667;28;20814;-36
2021/06/02 13:26:08;;;;;;;3.80;2.97;;;27.30;53.00;;;;;;5029302;28;20198;-36
2021/06/02 13:28:54;;;;;;;3.37;3.17;;;27.30;53.70;;;;;;5038521;28;20499;-36